Saint Xavier, MT (59075)

5:10 PM MDT on September 21, 2014 (GMT -0600)
Billings Logan International | Change Station
CLOSE
Current Station
Airport
Location: Billings,
Elevation: 3570 ft
Nearby Weather Stations

Elev 3570 ft 45.81 °N, 108.54 °W | Updated 17 minutes ago

Clear
Clear
78 °F
Feels Like 78 °F
N
13
Wind Variable Wind from East

Today
High -- | Low -- °F
--% Chance of Precip.
Yesterday
High -- | Low -- °F
Precip. -- in
6:57 AM 7:10 PM
Waning Crescent, 5% visible
Pressure 30.08 in
Visibility 10.0 miles
Clouds Few 20000 ft
Scattered Clouds 25000 ft
Dew Point 41 °F
Humidity 27%
Rainfall 0.00 in
Snow Depth 0 in , 0 in , 1 in
UV 2 out of 12
Pollen 5.00 out of 12
Air Quality Not available.
Flu Activity Not available.
METAR KBIL 212253Z 09011KT 10SM FEW200 SCT250 26/05 A3014 RMK AO2 SLP185 T02560050

More Conditions Fewer Conditions

Pressure 30.08 in
Visibility 10.0 miles
Clouds Few 20000 ft
Scattered Clouds 25000 ft
Dew Point 41 °F
Humidity 27%
Rainfall 0.00 in
Snow Depth 0 in , 0 in , 1 in
UV 2 out of 12
Pollen 5.00 out of 12
Air Quality Not available.
Flu Activity Not available.
METAR KBIL 212253Z 09011KT 10SM FEW200 SCT250 26/05 A3014 RMK AO2 SLP185 T02560050

More Conditions Fewer Conditions

10-Day Weather Forecast

Almanac

Astronomy

Sep. 21, 2014 Rise Set
Actual Time 6:57 AM MDT 7:10 PM MDT
Civil Twilight 6:27 AM MDT 7:40 PM MDT
Nautical Twilight 5:52 AM MDT 8:15 PM MDT
Astronomical Twilight 5:17 AM MDT 8:50 PM MDT
Moon 4:28 AM MDT 5:52 PM MDT
Length of Visible Light 13h 12m
Length of Day
12h 13m
Tomorrow will be 3m 10s shorter.
Waning Crescent, 5% of the Moon is Illuminated
Today
Waning Crescent
Sep 24
New
Oct 1
First Quarter
Oct 8
Full
Oct 15
Last Quarter

Today's Extremes

State Highs State Lows

Community

WunderPhotos

Upload Photos

1,755,290 photos uploaded!

WunderBlogs® & News

Nearby

Snow Depth

Station Depth Elevation
Fisher Creek 0 in 9100 ft
Wood Creek 0 in 5960 ft
Porcupine 1 in 6500 ft
Northeast Entrance 0 in 7350 ft
Dupuyer Creek 0 in 5750 ft

Earthquake Activity

City Distance Mag. Time & Date
No recent earthquake activity has been reported nearby.
Minimum magnitude displayed is 2.5.

Coastal Water Temperatures

Place Temperature
No Stations Reporting

Nearby Weather Stations